Terminal Aerodrome Forecast
Issued by NWS Louisville, KY

Home | Current Version | Previous Version | Text Only | Print | Product List | Glossary On
Versions: 1 2 3 4 5 6 7 8 9 10 11 12 13 14 15 16 17 18 19
000
FTUS43 KLMK 240300 AAA
TAFSDF
TAF AMD
KSDF 240348Z 2404/2506 34006KT P6SM BKN011
     FM241200 01008KT P6SM BKN025
     FM241500 01008KT P6SM BKN040=

USA.gov is the U.S. government's official web portal to all federal, state and local government web resources and services.